createdAt,value
2022-08-12T00:01:13.126Z,52.80
2022-08-12T00:03:59.630Z,52.90
2022-08-12T00:06:48.201Z,53.00
2022-08-12T00:09:33.678Z,53.10
2022-08-12T00:12:20.101Z,53.10
2022-08-12T00:15:06.028Z,53.30
2022-08-12T00:17:52.778Z,53.30
2022-08-12T00:20:38.731Z,53.50
2022-08-12T00:23:24.742Z,53.60
2022-08-12T00:26:23.414Z,53.60
2022-08-12T00:29:13.253Z,53.80
2022-08-12T00:32:00.629Z,53.90
2022-08-12T00:34:51.544Z,53.90
2022-08-12T00:37:40.596Z,54.00
2022-08-12T00:40:30.336Z,54.10
2022-08-12T00:42:58.699Z,54.20
2022-08-12T00:45:26.531Z,54.10
2022-08-12T00:47:54.562Z,54.30
2022-08-12T00:50:23.426Z,54.40
2022-08-12T00:52:53.103Z,54.60
2022-08-12T00:55:21.530Z,54.70
2022-08-12T00:57:52.050Z,54.70
2022-08-12T01:00:25.197Z,54.80
2022-08-12T01:02:58.222Z,55.10
2022-08-12T01:05:45.687Z,54.90
2022-08-12T01:08:32.223Z,54.90
2022-08-12T01:11:17.942Z,55.00
2022-08-12T01:13:49.862Z,54.90
2022-08-12T01:16:22.765Z,55.20
2022-08-12T01:18:53.330Z,55.10
2022-08-12T01:24:38.061Z,55.20
2022-08-12T01:27:10.824Z,55.80
2022-08-12T01:29:44.428Z,55.40
2022-08-12T01:32:16.663Z,55.40
2022-08-12T01:35:12.631Z,55.80
2022-08-12T01:38:02.684Z,56.20
2022-08-12T01:40:38.193Z,56.60
2022-08-12T01:43:12.762Z,55.50
2022-08-12T01:46:10.334Z,55.70
2022-08-12T01:49:00.551Z,56.10
2022-08-12T01:52:20.063Z,57.10
2022-08-12T01:54:32.419Z,56.40
2022-08-12T01:57:16.160Z,55.80
2022-08-12T02:00:14.514Z,56.40
2022-08-12T02:03:07.319Z,56.00
2022-08-12T02:06:23.019Z,56.90
2022-08-12T02:09:17.997Z,56.50
2022-08-12T02:12:28.523Z,56.40
2022-08-12T02:15:53.652Z,57.40
2022-08-12T02:18:45.921Z,57.10
2022-08-12T02:21:21.281Z,56.10
2022-08-12T02:23:49.359Z,56.60
2022-08-12T02:26:17.823Z,55.90
2022-08-12T02:28:46.653Z,56.40
2022-08-12T02:31:15.072Z,56.50
2022-08-12T02:33:44.163Z,56.70
2022-08-12T02:36:11.449Z,57.00
2022-08-12T02:38:43.689Z,57.10
2022-08-12T02:41:13.322Z,57.30
2022-08-12T02:44:00.875Z,57.10
2022-08-12T02:46:32.910Z,57.10
2022-08-12T02:49:24.234Z,57.30
2022-08-12T02:51:51.655Z,57.40
2022-08-12T02:54:18.972Z,56.50
2022-08-12T02:56:50.624Z,57.00
2022-08-12T02:59:24.461Z,57.20
2022-08-12T03:02:05.476Z,57.40
2022-08-12T03:04:43.615Z,57.60
2022-08-12T03:07:59.302Z,57.40
2022-08-12T03:10:37.042Z,58.50
2022-08-12T03:13:07.609Z,57.50
2022-08-12T03:15:36.048Z,57.60
2022-08-12T03:18:24.073Z,57.60
2022-08-12T03:20:55.801Z,58.20
2022-08-12T03:23:29.984Z,57.50
2022-08-12T03:26:01.931Z,57.80
2022-08-12T03:28:54.305Z,58.20
2022-08-12T03:31:23.340Z,58.20
2022-08-12T03:34:02.039Z,58.60
2022-08-12T03:36:36.394Z,58.00
2022-08-12T03:39:18.045Z,58.60
2022-08-12T03:41:52.411Z,58.70
2022-08-12T03:45:07.089Z,59.10
2022-08-12T03:47:58.785Z,58.40
2022-08-12T03:50:45.697Z,58.70
2022-08-12T03:53:36.049Z,58.70
2022-08-12T03:56:21.861Z,58.80
2022-08-12T03:59:07.936Z,58.90
2022-08-12T04:01:40.648Z,59.00
2022-08-12T04:04:10.817Z,59.10
2022-08-12T04:06:46.809Z,59.40
2022-08-12T04:09:15.669Z,59.90
2022-08-12T04:12:04.612Z,59.70
2022-08-12T04:14:33.132Z,59.80
2022-08-12T04:17:02.065Z,59.90
2022-08-12T04:19:30.409Z,60.00
2022-08-12T04:22:01.953Z,60.00
2022-08-12T04:24:36.139Z,60.00
2022-08-12T04:27:10.338Z,60.00
2022-08-12T04:30:16.533Z,60.30
2022-08-12T04:32:27.551Z,60.00
2022-08-12T04:34:55.967Z,60.10
2022-08-12T04:37:23.446Z,60.30
2022-08-12T04:39:52.111Z,60.50
2022-08-12T04:42:20.291Z,60.60
2022-08-12T04:44:48.592Z,60.70
2022-08-12T04:47:17.097Z,60.90
2022-08-12T04:49:48.250Z,60.90
2022-08-12T04:52:16.244Z,61.00
2022-08-12T04:54:44.234Z,61.10
2022-08-12T04:57:11.719Z,61.20
2022-08-12T04:59:47.978Z,61.30
2022-08-12T05:02:22.614Z,61.30
2022-08-12T05:05:00.683Z,61.70
2022-08-12T05:07:28.440Z,61.90
2022-08-12T05:10:01.834Z,61.60
2022-08-12T05:12:45.948Z,61.70
2022-08-12T05:15:27.916Z,62.60
2022-08-12T05:18:00.185Z,61.60
2022-08-12T05:20:30.961Z,61.60
2022-08-12T05:23:13.906Z,61.50
2022-08-12T05:25:56.398Z,62.30
2022-08-12T05:28:27.268Z,62.10
2022-08-12T05:30:56.611Z,61.50
2022-08-12T05:33:26.729Z,61.40
2022-08-12T05:35:54.063Z,61.30
2022-08-12T05:38:39.752Z,61.00
2022-08-12T05:41:19.265Z,61.00
2022-08-12T05:44:18.704Z,60.80
2022-08-12T05:46:45.908Z,60.80
2022-08-12T05:49:13.208Z,60.40
2022-08-12T05:51:41.865Z,60.20
2022-08-12T05:54:11.547Z,60.20
2022-08-12T05:56:41.641Z,59.90
2022-08-12T05:59:12.665Z,59.70
2022-08-12T06:02:11.343Z,59.50
2022-08-12T06:04:29.549Z,59.40
2022-08-12T06:06:57.122Z,59.10
2022-08-12T06:09:25.693Z,59.10
2022-08-12T06:12:04.782Z,59.00
2022-08-12T06:14:38.763Z,59.00
2022-08-12T06:17:08.692Z,58.80
2022-08-12T06:20:27.565Z,58.60
2022-08-12T06:22:23.327Z,58.30
2022-08-12T06:24:53.033Z,58.10
2022-08-12T06:27:21.773Z,58.00
2022-08-12T06:30:08.103Z,57.80
2022-08-12T06:32:42.861Z,57.70
2022-08-12T06:35:26.455Z,57.60
2022-08-12T06:38:25.454Z,57.50
2022-08-12T06:41:18.689Z,57.30
2022-08-12T06:44:04.955Z,57.20
2022-08-12T06:46:37.097Z,57.10
2022-08-12T06:49:04.630Z,57.10
2022-08-12T06:51:32.778Z,56.90
2022-08-12T06:54:01.980Z,57.00
2022-08-12T06:57:00.236Z,56.70
2022-08-12T06:59:21.423Z,56.60
2022-08-12T07:01:51.145Z,56.30
2022-08-12T07:04:37.213Z,56.20
2022-08-12T07:07:10.324Z,56.00
2022-08-12T07:10:03.763Z,56.00
2022-08-12T07:12:30.338Z,55.90
2022-08-12T07:14:59.452Z,55.70
2022-08-12T07:17:31.694Z,55.50
2022-08-12T07:20:04.018Z,55.40
2022-08-12T07:22:33.194Z,55.30
2022-08-12T07:25:19.362Z,55.40
2022-08-12T07:27:46.828Z,55.30
2022-08-12T07:30:14.530Z,55.20
2022-08-12T07:32:41.824Z,55.00
2022-08-12T07:35:09.429Z,55.00
2022-08-12T07:37:42.403Z,54.80
2022-08-12T07:40:12.212Z,54.60
2022-08-12T07:42:41.823Z,54.60
2022-08-12T07:45:09.658Z,54.60
2022-08-12T07:47:38.156Z,54.30
2022-08-12T07:50:09.409Z,54.50
2022-08-12T07:52:45.390Z,54.30
2022-08-12T07:55:15.113Z,53.80
2022-08-12T07:57:57.897Z,53.80
2022-08-12T08:00:28.177Z,53.20
2022-08-12T08:02:55.916Z,53.30
2022-08-12T08:05:26.224Z,53.00
2022-08-12T08:07:57.685Z,52.80
2022-08-12T08:10:26.287Z,52.70
2022-08-12T08:12:53.673Z,52.70
2022-08-12T08:15:51.137Z,52.50
2022-08-12T08:18:26.294Z,52.00
2022-08-12T08:20:56.324Z,52.10
2022-08-12T08:23:46.344Z,52.20
2022-08-12T08:26:15.668Z,51.90
2022-08-12T08:28:43.774Z,51.90
2022-08-12T08:31:12.897Z,51.60
2022-08-12T08:34:01.359Z,51.50
2022-08-12T08:36:29.294Z,51.20
2022-08-12T08:38:58.555Z,51.00
2022-08-12T08:42:16.225Z,51.00
2022-08-12T08:44:39.543Z,50.90
2022-08-12T08:47:09.907Z,50.90
2022-08-12T08:49:38.530Z,50.80
2022-08-12T08:52:08.697Z,50.90
2022-08-12T08:54:37.853Z,50.90
2022-08-12T08:57:08.326Z,50.60
2022-08-12T08:59:36.256Z,50.40
2022-08-12T09:02:03.853Z,50.20
2022-08-12T09:05:11.118Z,50.10
2022-08-12T09:07:51.120Z,49.90
2022-08-12T09:10:09.276Z,49.70
2022-08-12T09:13:06.777Z,49.60
2022-08-12T09:15:37.308Z,48.80
2022-08-12T09:18:08.799Z,49.00
2022-08-12T09:20:38.841Z,48.80
2022-08-12T09:26:03.855Z,48.90
2022-08-12T09:28:33.516Z,48.70
2022-08-12T09:31:00.964Z,48.60
2022-08-12T09:34:28.389Z,48.70
2022-08-12T09:36:30.986Z,48.40
2022-08-12T09:40:06.322Z,48.20
2022-08-12T09:42:39.101Z,48.10
2022-08-12T09:45:23.445Z,48.10
2022-08-12T09:47:59.708Z,47.90
2022-08-12T09:50:28.285Z,47.80
2022-08-12T09:53:15.406Z,47.80
2022-08-12T09:56:56.660Z,47.20
2022-08-12T09:58:59.154Z,47.50
2022-08-12T10:01:24.853Z,47.50
2022-08-12T10:04:04.904Z,47.50
2022-08-12T10:06:36.225Z,47.30
2022-08-12T10:09:08.678Z,47.10
2022-08-12T10:12:10.874Z,46.70
2022-08-12T10:14:50.267Z,46.90
2022-08-12T10:17:21.709Z,46.80
2022-08-12T10:19:52.492Z,46.70
2022-08-12T10:22:38.992Z,46.80
2022-08-12T10:26:18.384Z,46.60
2022-08-12T10:28:38.211Z,46.60
2022-08-12T10:31:06.635Z,46.30
2022-08-12T10:34:05.244Z,46.30
2022-08-12T10:36:36.340Z,46.20
2022-08-12T10:40:02.268Z,45.80
2022-08-12T10:42:45.917Z,45.80
2022-08-12T10:45:14.369Z,45.00
2022-08-12T10:48:16.010Z,45.40
2022-08-12T10:50:58.601Z,45.30
2022-08-12T10:53:20.419Z,45.30
2022-08-12T10:56:08.227Z,45.00
2022-08-12T10:58:36.679Z,44.80
2022-08-12T11:03:01.448Z,44.80
2022-08-12T11:04:35.516Z,44.80
2022-08-12T11:07:09.012Z,44.80
2022-08-12T11:09:41.698Z,44.40
2022-08-12T11:12:54.770Z,43.90
2022-08-12T11:15:18.856Z,43.30
2022-08-12T11:17:52.668Z,43.40
2022-08-12T11:20:24.266Z,43.60
2022-08-12T11:23:26.083Z,43.80
2022-08-12T11:25:57.488Z,43.50
2022-08-12T11:28:34.602Z,43.80
2022-08-12T11:31:09.921Z,43.50
2022-08-12T11:34:04.361Z,43.40
2022-08-12T11:36:29.184Z,43.50
2022-08-12T11:38:58.184Z,43.40
2022-08-12T11:41:31.277Z,43.60
2022-08-12T11:44:35.918Z,43.60
2022-08-12T11:46:54.666Z,43.90
2022-08-12T11:49:32.346Z,44.10
2022-08-12T11:52:04.265Z,43.90
2022-08-12T11:54:51.026Z,44.10
2022-08-12T11:58:09.173Z,44.10
2022-08-12T12:02:54.554Z,44.50
2022-08-12T12:05:22.082Z,44.60
2022-08-12T12:08:38.197Z,44.60
2022-08-12T12:10:43.200Z,44.70
2022-08-12T12:13:11.719Z,44.80
2022-08-12T12:15:51.198Z,44.90
2022-08-12T12:18:31.091Z,45.00
2022-08-12T12:21:08.230Z,44.90
2022-08-12T12:23:36.606Z,45.00
2022-08-12T12:26:08.020Z,45.10
2022-08-12T12:28:39.724Z,45.10
2022-08-12T12:31:14.869Z,45.20
2022-08-12T12:33:57.731Z,45.30
2022-08-12T12:36:29.750Z,45.40
2022-08-12T12:38:58.087Z,45.30
2022-08-12T12:42:52.189Z,45.40
2022-08-12T12:44:30.194Z,45.50
2022-08-12T12:47:03.441Z,45.50
2022-08-12T12:49:30.675Z,45.20
2022-08-12T12:52:18.544Z,45.00
2022-08-12T12:54:52.921Z,45.40
2022-08-12T12:57:35.852Z,45.40
2022-08-12T13:00:15.690Z,45.10
2022-08-12T13:02:57.080Z,45.00
2022-08-12T13:05:42.273Z,45.00
2022-08-12T13:08:28.030Z,45.30
2022-08-12T13:11:05.446Z,44.80
2022-08-12T13:14:07.448Z,44.80
2022-08-12T13:16:30.332Z,44.60
2022-08-12T13:18:58.435Z,44.80
2022-08-12T13:21:36.863Z,45.10
2022-08-12T13:24:10.828Z,44.60
2022-08-12T13:26:40.552Z,44.50
2022-08-12T13:29:11.664Z,44.70
2022-08-12T13:31:46.448Z,44.60
2022-08-12T13:34:34.183Z,44.60
2022-08-12T13:37:09.199Z,44.30
2022-08-12T13:39:39.110Z,44.40
2022-08-12T13:42:13.793Z,44.30
2022-08-12T13:44:42.805Z,44.00
2022-08-12T13:47:18.484Z,43.70
2022-08-12T13:49:53.928Z,43.90
2022-08-12T13:52:23.697Z,43.90
2022-08-12T13:54:54.179Z,44.10
2022-08-12T13:57:25.699Z,44.30
2022-08-12T13:59:55.595Z,44.00
2022-08-12T14:02:27.891Z,43.70
2022-08-12T14:04:56.799Z,43.70
2022-08-12T14:07:26.086Z,43.60
2022-08-12T14:10:16.442Z,43.50
2022-08-12T14:12:54.600Z,43.80
2022-08-12T14:15:34.948Z,43.90
2022-08-12T14:18:26.000Z,43.80
2022-08-12T14:21:01.945Z,44.00
2022-08-12T14:24:04.638Z,44.20
2022-08-12T14:26:26.315Z,44.00
2022-08-12T14:28:57.802Z,44.20
2022-08-12T14:31:31.440Z,44.30
2022-08-12T14:33:59.948Z,44.30
2022-08-12T14:36:27.473Z,44.20
2022-08-12T14:38:56.038Z,44.20
2022-08-12T14:41:37.315Z,44.50
2022-08-12T14:44:57.667Z,44.70
2022-08-12T14:47:01.073Z,44.80
2022-08-12T14:50:33.460Z,44.90
2022-08-12T14:53:48.781Z,45.00
2022-08-12T14:58:01.934Z,45.00
2022-08-12T15:00:52.422Z,45.00
2022-08-12T15:03:52.433Z,44.80
2022-08-12T15:06:39.261Z,44.60
2022-08-12T15:09:09.239Z,44.60
2022-08-12T15:11:55.751Z,44.70
2022-08-12T15:14:30.290Z,45.10
2022-08-12T15:17:00.663Z,45.30
2022-08-12T15:20:31.955Z,45.30
2022-08-12T15:22:39.276Z,45.30
2022-08-12T15:25:07.883Z,45.30
2022-08-12T15:28:11.062Z,45.40
2022-08-12T15:30:32.106Z,45.50
2022-08-12T15:32:59.574Z,45.30
2022-08-12T15:35:31.180Z,45.30
2022-08-12T15:38:10.224Z,45.10
2022-08-12T15:40:46.826Z,44.90
2022-08-12T15:44:14.075Z,45.20
2022-08-12T15:46:06.431Z,45.40
2022-08-12T15:48:34.278Z,45.30
2022-08-12T15:51:03.146Z,45.30
2022-08-12T15:53:53.076Z,45.20
2022-08-12T15:56:29.265Z,45.10
2022-08-12T15:59:00.894Z,44.90
2022-08-12T16:01:35.115Z,44.70
2022-08-12T16:04:05.169Z,44.00
2022-08-12T16:07:00.487Z,43.30
2022-08-12T16:09:56.133Z,42.80
2022-08-12T16:12:12.297Z,42.80
2022-08-12T16:14:41.819Z,42.70
2022-08-12T16:17:14.775Z,43.10
2022-08-12T16:20:05.294Z,43.20
2022-08-12T16:22:30.299Z,43.10
2022-08-12T16:24:57.521Z,43.00
2022-08-12T16:27:29.714Z,43.10
2022-08-12T16:29:57.751Z,42.90
2022-08-12T16:32:31.715Z,43.10
2022-08-12T16:35:01.544Z,43.30
2022-08-12T16:38:05.019Z,43.60
2022-08-12T16:40:18.849Z,44.00
2022-08-12T16:42:54.201Z,44.50
2022-08-12T16:45:32.275Z,44.60
2022-08-12T16:48:34.947Z,44.70
2022-08-12T16:51:09.784Z,45.00
2022-08-12T16:53:44.805Z,45.00
2022-08-12T16:56:17.104Z,44.90
2022-08-12T16:58:47.286Z,44.80
2022-08-12T17:01:15.727Z,44.60
2022-08-12T17:03:52.285Z,44.40
2022-08-12T17:06:27.525Z,44.30
2022-08-12T17:09:03.331Z,44.00
2022-08-12T17:11:38.825Z,43.60
2022-08-12T17:14:08.337Z,43.50
2022-08-12T17:16:37.510Z,43.20
2022-08-12T17:19:09.475Z,42.90
2022-08-12T17:21:40.703Z,42.50
2022-08-12T17:24:22.470Z,42.20
2022-08-12T17:27:00.656Z,42.00
2022-08-12T17:30:01.523Z,41.60
2022-08-12T17:32:16.332Z,41.00
2022-08-12T17:35:10.863Z,40.70
2022-08-12T17:37:39.641Z,40.40
2022-08-12T17:40:13.854Z,40.30
2022-08-12T17:42:47.866Z,40.20
2022-08-12T17:45:20.054Z,40.20
2022-08-12T17:48:02.305Z,40.20
2022-08-12T17:50:35.971Z,40.10
2022-08-12T17:53:04.760Z,40.10
2022-08-12T17:55:40.179Z,40.30
2022-08-12T17:58:13.773Z,40.40
2022-08-12T18:00:47.508Z,40.50
2022-08-12T18:04:04.843Z,40.90
2022-08-12T18:06:13.729Z,41.00
2022-08-12T18:08:54.917Z,41.20
2022-08-12T18:12:05.417Z,41.50
2022-08-12T18:14:37.046Z,41.80
2022-08-12T18:17:08.711Z,41.90
2022-08-12T18:20:04.953Z,42.20
2022-08-12T18:22:30.391Z,42.50
2022-08-12T18:25:06.592Z,42.70
2022-08-12T18:27:44.705Z,43.00
2022-08-12T18:30:20.943Z,43.40
2022-08-12T18:33:03.471Z,43.70
2022-08-12T18:35:47.185Z,43.90
2022-08-12T18:38:24.693Z,44.10
2022-08-12T18:41:20.755Z,44.30
2022-08-12T18:44:02.467Z,44.50
2022-08-12T18:46:53.935Z,44.90
2022-08-12T18:49:32.066Z,45.40
2022-08-12T18:52:05.691Z,45.20
2022-08-12T18:54:49.390Z,45.30
2022-08-12T18:58:07.005Z,45.60
2022-08-12T19:00:22.295Z,45.90
2022-08-12T19:02:55.890Z,46.10
2022-08-12T19:05:52.966Z,46.70
2022-08-12T19:08:15.611Z,47.00
2022-08-12T19:10:49.935Z,47.10
2022-08-12T19:13:37.757Z,47.30
2022-08-12T19:16:12.541Z,47.40
2022-08-12T19:18:44.906Z,47.60
2022-08-12T19:21:16.624Z,47.70
2022-08-12T19:24:07.694Z,47.90
2022-08-12T19:26:36.277Z,48.00
2022-08-12T19:29:07.716Z,48.10
2022-08-12T19:31:57.794Z,48.30
2022-08-12T19:35:54.055Z,48.40
2022-08-12T19:38:02.705Z,49.00
2022-08-12T19:40:31.808Z,48.70
2022-08-12T19:43:18.950Z,48.90
2022-08-12T19:45:56.313Z,48.90
2022-08-12T19:48:30.832Z,49.10
2022-08-12T19:51:09.059Z,49.10
2022-08-12T19:53:57.541Z,49.30
2022-08-12T19:56:29.613Z,49.50
2022-08-12T19:59:20.768Z,49.60
2022-08-12T20:02:02.376Z,49.80
2022-08-12T20:04:32.968Z,49.80
2022-08-12T20:07:00.315Z,49.80
2022-08-12T20:09:38.865Z,50.10
2022-08-12T20:12:13.027Z,50.30
2022-08-12T20:14:52.570Z,50.50
2022-08-12T20:17:23.581Z,50.90
2022-08-12T20:20:17.795Z,50.90
2022-08-12T20:22:42.357Z,51.10
2022-08-12T20:25:15.591Z,51.30
2022-08-12T20:28:05.063Z,51.50
2022-08-12T20:30:53.164Z,51.80
2022-08-12T20:33:32.242Z,51.60
2022-08-12T20:36:41.364Z,51.70
2022-08-12T20:39:05.623Z,51.80
2022-08-12T20:41:58.844Z,51.90
2022-08-12T20:44:28.309Z,51.90
2022-08-12T20:46:58.179Z,52.30
2022-08-12T20:49:25.664Z,52.60
2022-08-12T20:51:59.543Z,52.60
2022-08-12T20:54:34.036Z,52.70
2022-08-12T20:57:09.967Z,52.80
2022-08-12T20:59:47.697Z,52.90
2022-08-12T21:02:15.676Z,53.00
2022-08-12T21:05:01.642Z,52.90
2022-08-12T21:07:40.769Z,53.10
2022-08-12T21:10:15.101Z,53.00
2022-08-12T21:12:42.839Z,53.30
2022-08-12T21:15:23.235Z,53.50
2022-08-12T21:18:12.002Z,53.80
2022-08-12T21:20:54.315Z,54.00
2022-08-12T21:23:22.613Z,53.70
2022-08-12T21:25:53.915Z,54.00
2022-08-12T21:28:31.178Z,54.20
2022-08-12T21:32:35.095Z,54.30
2022-08-12T21:34:07.496Z,54.50
2022-08-12T21:36:39.674Z,54.30
2022-08-12T21:39:27.840Z,54.60
2022-08-12T21:42:05.394Z,55.20
2022-08-12T21:45:45.683Z,54.70
2022-08-12T21:47:24.674Z,54.90
2022-08-12T21:50:03.295Z,54.90
2022-08-12T21:52:36.678Z,55.20
2022-08-12T21:55:17.919Z,55.10
2022-08-12T21:57:53.426Z,55.70
2022-08-12T22:00:33.328Z,55.70
2022-08-12T22:04:02.962Z,55.80
2022-08-12T22:06:20.244Z,56.00
2022-08-12T22:09:04.004Z,55.50
2022-08-12T22:11:41.427Z,55.70
2022-08-12T22:14:21.714Z,55.80
2022-08-12T22:16:54.907Z,55.80
2022-08-12T22:19:23.721Z,56.00
2022-08-12T22:21:58.560Z,56.30
2022-08-12T22:24:31.092Z,56.50
2022-08-12T22:27:18.045Z,56.50
2022-08-12T22:30:16.458Z,56.80
2022-08-12T22:32:49.700Z,56.60
2022-08-12T22:35:55.914Z,56.50
2022-08-12T22:38:26.676Z,56.50
2022-08-12T22:41:28.535Z,56.60
2022-08-12T22:44:17.415Z,56.80
2022-08-12T22:46:54.331Z,56.50
2022-08-12T22:49:48.777Z,56.60
2022-08-12T22:52:22.679Z,57.40
2022-08-12T22:55:02.260Z,57.10
2022-08-12T22:57:54.184Z,57.20
2022-08-12T23:00:24.142Z,57.40
2022-08-12T23:02:56.961Z,57.30
2022-08-12T23:05:56.772Z,57.40
2022-08-12T23:08:30.147Z,57.30
2022-08-12T23:11:06.056Z,57.30
2022-08-12T23:13:54.927Z,57.60
2022-08-12T23:16:31.117Z,57.40
2022-08-12T23:19:09.616Z,57.40
2022-08-12T23:22:04.344Z,57.60
2022-08-12T23:24:55.924Z,57.80
2022-08-12T23:27:51.873Z,57.80
2022-08-12T23:30:31.374Z,57.90
2022-08-12T23:33:13.474Z,58.00
2022-08-12T23:35:59.222Z,57.80
2022-08-12T23:38:32.298Z,58.00
2022-08-12T23:41:05.680Z,58.00
2022-08-12T23:43:38.967Z,58.40
2022-08-12T23:46:18.530Z,58.30
2022-08-12T23:48:52.119Z,58.20
2022-08-12T23:51:25.349Z,58.30
2022-08-12T23:54:00.340Z,58.50
2022-08-12T23:56:33.693Z,58.40
2022-08-12T23:59:06.811Z,58.60
